Time;durP1;ratioP1;P1;durP2;ratioP2;P2;SDS_P1;SDS_P2;PMS_P1;PMS_P2;Temp;Humidity;BMP_temperature;BMP_pressure;BME280_temperature;BME280_humidity;BME280_pressure;Samples;Min_cycle;Max_cycle;Signal;HPM_P1;HPM_P2
2022/07/13 00:00:01;;;;;;;4.17;2.57;;;20.60;99.90;;;;;;4955617;29;20259;-62
2022/07/13 00:02:28;;;;;;;3.90;2.80;;;20.60;99.90;;;;;;4955573;29;20750;-62
2022/07/13 00:04:55;;;;;;;5.60;2.93;;;20.60;99.90;;;;;;4955581;29;20676;-62
2022/07/13 00:07:21;;;;;;;4.97;2.70;;;20.70;99.90;;;;;;4955419;29;20213;-62
2022/07/13 00:09:48;;;;;;;5.37;2.80;;;20.70;99.90;;;;;;4955339;29;20272;-62
2022/07/13 00:12:16;;;;;;;3.37;2.50;;;20.80;99.90;;;;;;4954606;28;20277;-62
2022/07/13 00:14:43;;;;;;;4.03;3.00;;;20.80;99.90;;;;;;4955192;29;20212;-61
2022/07/13 00:17:10;;;;;;;3.10;2.40;;;20.90;99.90;;;;;;4955396;29;20331;-61
2022/07/13 00:19:36;;;;;;;4.03;2.47;;;21.00;99.90;;;;;;4955364;29;20280;-61
2022/07/13 00:22:03;;;;;;;3.00;2.47;;;21.10;99.90;;;;;;4955375;29;20204;-62
2022/07/13 00:24:30;;;;;;;5.40;2.80;;;21.30;99.90;;;;;;4955269;29;20659;-61
2022/07/13 00:26:57;;;;;;;4.73;2.83;;;21.30;99.90;;;;;;4954656;29;20217;-61
2022/07/13 00:29:25;;;;;;;3.20;2.43;;;21.30;99.90;;;;;;4954995;29;20273;-61
2022/07/13 00:31:51;;;;;;;4.73;2.50;;;21.40;99.90;;;;;;4955116;29;20256;-62
2022/07/13 00:34:18;;;;;;;6.07;2.80;;;21.40;99.90;;;;;;4955116;29;20221;-62
2022/07/13 00:36:44;;;;;;;6.43;2.43;;;21.40;99.90;;;;;;4954563;29;20208;-62
2022/07/13 00:39:11;;;;;;;3.13;2.60;;;21.40;99.90;;;;;;4954886;29;20229;-62
2022/07/13 00:41:45;;;;;;;4.50;2.60;;;21.40;99.90;;;;;;4954832;29;20268;-62
2022/07/13 00:44:12;;;;;;;3.77;2.40;;;21.40;99.90;;;;;;4954807;29;20695;-61
2022/07/13 00:46:41;;;;;;;5.73;2.43;;;21.40;99.90;;;;;;4954709;29;20636;-62
2022/07/13 00:49:08;;;;;;;7.33;2.83;;;21.40;99.90;;;;;;4954608;29;20235;-61
2022/07/13 00:51:35;;;;;;;4.60;2.80;;;21.40;99.90;;;;;;4954922;29;20209;-61
2022/07/13 00:54:03;;;;;;;5.27;3.10;;;21.20;99.90;;;;;;4954557;29;20217;-62
2022/07/13 00:56:30;;;;;;;5.13;3.20;;;21.10;99.90;;;;;;4954255;29;20295;-62
2022/07/13 00:58:59;;;;;;;3.73;2.90;;;20.90;99.90;;;;;;4954485;29;20233;-62
2022/07/13 01:01:26;;;;;;;6.33;3.50;;;20.90;99.90;;;;;;4954822;29;20209;-62
2022/07/13 01:03:54;;;;;;;7.07;3.67;;;20.80;1.00;;;;;;4954404;28;20300;-62
2022/07/13 01:06:21;;;;;;;6.03;3.50;;;20.70;1.00;;;;;;4954404;29;20303;-61
2022/07/13 01:08:47;;;;;;;3.53;3.23;;;20.50;1.00;;;;;;4954360;29;20307;-62
2022/07/13 01:11:14;;;;;;;4.30;3.90;;;20.30;1.00;;;;;;4954121;29;20209;-61
2022/07/13 01:13:41;;;;;;;5.57;3.43;;;20.30;35.30;;;;;;4954194;29;20283;-60
2022/07/13 01:16:09;;;;;;;4.73;3.30;;;20.30;95.80;;;;;;4953917;29;20263;-61
2022/07/13 01:18:36;;;;;;;5.00;3.50;;;20.30;99.90;;;;;;4954410;29;20644;-60
2022/07/13 01:21:06;;;;;;;4.20;3.50;;;20.30;99.90;;;;;;4953995;29;20249;-60
2022/07/13 01:23:35;;;;;;;7.70;3.77;;;20.40;1.00;;;;;;4954116;28;20205;-65
2022/07/13 01:26:03;;;;;;;4.93;3.93;;;20.30;34.80;;;;;;4953967;29;20213;-61
2022/07/13 01:28:29;;;;;;;4.20;3.53;;;20.30;99.90;;;;;;4953990;29;20241;-61
2022/07/13 01:30:56;;;;;;;6.10;4.00;;;20.30;99.90;;;;;;4954141;29;20213;-61
2022/07/13 01:33:23;;;;;;;4.47;3.77;;;20.30;1.00;;;;;;4953816;29;20228;-61
2022/07/13 01:35:49;;;;;;;5.10;4.10;;;20.30;1.00;;;;;;4953975;29;20911;-61
2022/07/13 01:38:17;;;;;;;4.50;3.97;;;20.20;1.00;;;;;;4953329;29;20876;-61
2022/07/13 01:40:45;;;;;;;4.33;3.47;;;20.10;30.40;;;;;;4954181;29;20217;-61
2022/07/13 01:43:13;;;;;;;7.33;3.87;;;20.10;99.90;;;;;;4953806;29;20211;-61
2022/07/13 01:45:39;;;;;;;4.60;3.60;;;20.00;1.00;;;;;;4954021;29;20213;-61
2022/07/13 01:48:07;;;;;;;5.07;3.77;;;19.80;67.50;;;;;;4953471;29;20233;-61
2022/07/13 01:50:33;;;;;;;7.00;3.93;;;19.80;1.00;;;;;;4953944;29;20583;-61
2022/07/13 01:53:00;;;;;;;4.17;3.67;;;19.70;99.90;;;;;;4954142;29;20233;-58
2022/07/13 01:55:27;;;;;;;7.83;3.90;;;19.70;1.00;;;;;;4954193;29;20672;-59
2022/07/13 01:57:59;;;;;;;9.13;4.37;;;19.70;91.50;;;;;;4953817;29;20264;-60
2022/07/13 02:00:27;;;;;;;4.00;3.60;;;19.70;99.90;;;;;;4953539;29;20242;-61
2022/07/13 02:02:54;;;;;;;5.30;3.63;;;19.60;9.80;;;;;;4953628;29;20205;-60
2022/07/13 02:05:21;;;;;;;4.93;3.80;;;19.40;1.00;;;;;;4953494;29;20212;-60
2022/07/13 02:07:47;;;;;;;7.50;4.30;;;19.40;99.90;;;;;;4953618;29;20279;-61
2022/07/13 02:10:14;;;;;;;7.00;4.07;;;19.40;94.40;;;;;;4953538;29;20280;-60
2022/07/13 02:12:42;;;;;;;6.37;4.00;;;19.40;99.90;;;;;;4953762;29;20296;-60
2022/07/13 02:15:11;;;;;;;5.17;3.77;;;19.40;99.90;;;;;;4953698;29;20209;-59
2022/07/13 02:17:38;;;;;;;4.57;4.07;;;19.30;99.90;;;;;;4953136;29;20213;-61
2022/07/13 02:20:05;;;;;;;6.80;5.03;;;19.40;99.90;;;;;;4953848;29;20287;-60
2022/07/13 02:22:43;;;;;;;5.00;4.13;;;19.40;99.90;;;;;;4953652;28;20213;-59
2022/07/13 02:25:10;;;;;;;5.37;4.13;;;19.30;99.90;;;;;;4953703;29;20216;-60
2022/07/13 02:27:37;;;;;;;6.97;3.73;;;19.30;99.90;;;;;;4953204;29;20327;-61
2022/07/13 02:30:05;;;;;;;6.83;3.87;;;19.30;99.90;;;;;;4953729;29;20256;-61
2022/07/13 02:32:33;;;;;;;7.00;3.97;;;19.40;99.90;;;;;;4953832;28;20575;-60
2022/07/13 02:34:59;;;;;;;5.47;3.83;;;19.50;99.90;;;;;;4954066;28;20210;-60
2022/07/13 02:37:26;;;;;;;6.20;3.60;;;19.40;4.70;;;;;;4956650;29;20256;-57
2022/07/13 02:39:55;;;;;;;5.43;4.00;;;19.50;1.00;;;;;;4957155;29;20237;-59
2022/07/13 02:42:23;;;;;;;7.43;4.00;;;19.60;1.00;;;;;;4957213;29;20316;-60
2022/07/13 02:44:50;;;;;;;4.87;3.67;;;19.60;1.00;;;;;;4956908;29;20212;-59
2022/07/13 02:47:17;;;;;;;5.67;4.10;;;19.60;1.00;;;;;;4956951;29;20213;-59
2022/07/13 02:49:45;;;;;;;4.40;3.37;;;19.60;1.00;;;;;;4956821;29;20236;-61
2022/07/13 02:52:11;;;;;;;6.40;3.67;;;19.60;99.90;;;;;;4956921;29;20625;-60
2022/07/13 02:54:38;;;;;;;4.23;3.27;;;19.50;99.90;;;;;;4956720;29;20275;-59
2022/07/13 02:57:06;;;;;;;4.83;3.67;;;19.60;1.00;;;;;;4956139;29;20213;-59
2022/07/13 02:59:33;;;;;;;5.77;3.67;;;19.50;99.90;;;;;;4956355;29;20264;-61
2022/07/13 03:01:59;;;;;;;4.73;3.50;;;19.60;42.50;;;;;;4957007;28;20209;-58
2022/07/13 03:04:26;;;;;;;5.43;3.93;;;19.60;99.90;;;;;;4956709;29;20664;-58
2022/07/13 03:06:54;;;;;;;4.77;3.73;;;19.60;1.00;;;;;;4956228;29;20217;-60
2022/07/13 03:09:21;;;;;;;6.90;4.37;;;19.50;99.90;;;;;;4956607;28;20794;-58
2022/07/13 03:11:48;;;;;;;7.03;4.10;;;19.50;99.90;;;;;;4956200;29;20684;-61
2022/07/13 03:14:14;;;;;;;6.10;4.07;;;19.50;1.00;;;;;;4956632;29;20229;-60
2022/07/13 03:16:41;;;;;;;4.37;3.73;;;19.60;99.90;;;;;;4955947;29;20268;-60
2022/07/13 03:19:08;;;;;;;4.73;3.93;;;19.70;99.90;;;;;;4956573;29;20300;-58
2022/07/13 03:21:34;;;;;;;6.30;4.00;;;19.70;99.90;;;;;;4956223;29;20213;-60
2022/07/13 03:24:03;;;;;;;4.17;3.40;;;19.70;99.90;;;;;;4956397;29;20241;-59
2022/07/13 03:26:30;;;;;;;4.50;4.10;;;19.60;99.90;;;;;;4955756;29;20209;-59
2022/07/13 03:28:57;;;;;;;5.37;3.40;;;19.60;99.90;;;;;;4955970;29;20229;-59
2022/07/13 03:31:26;;;;;;;4.57;3.40;;;19.70;99.90;;;;;;4956417;29;20265;-60
2022/07/13 03:33:52;;;;;;;4.60;3.50;;;19.60;67.10;;;;;;4956144;29;20638;-59
2022/07/13 03:36:19;;;;;;;4.30;3.80;;;19.60;71.60;;;;;;4955990;29;20217;-59
2022/07/13 03:38:46;;;;;;;6.30;3.97;;;19.60;24.80;;;;;;4955878;29;20591;-59
2022/07/13 03:41:14;;;;;;;3.80;3.40;;;19.60;38.10;;;;;;4956037;29;20268;-60
2022/07/13 03:43:41;;;;;;;5.53;4.00;;;19.60;1.00;;;;;;4956000;29;20227;-58
2022/07/13 03:46:08;;;;;;;3.57;3.23;;;19.60;99.90;;;;;;4955614;28;20220;-59
2022/07/13 03:48:34;;;;;;;5.43;3.17;;;19.60;99.90;;;;;;4954826;29;20276;-60
2022/07/13 03:51:01;;;;;;;6.33;3.50;;;19.60;99.90;;;;;;4955673;29;20676;-60
2022/07/13 03:53:28;;;;;;;3.97;3.27;;;19.60;99.90;;;;;;4955656;29;20225;-58
2022/07/13 03:55:54;;;;;;;4.00;3.60;;;19.60;99.90;;;;;;4955542;29;20288;-61
2022/07/13 03:58:22;;;;;;;4.60;3.23;;;19.60;99.90;;;;;;4955672;29;20280;-60
2022/07/13 04:00:49;;;;;;;3.93;3.37;;;19.60;99.90;;;;;;4955686;29;20268;-61
2022/07/13 04:03:16;;;;;;;3.43;3.10;;;19.70;27.00;;;;;;4955742;29;20271;-61
2022/07/13 04:05:43;;;;;;;3.80;3.27;;;19.70;1.00;;;;;;4955449;29;20208;-61
2022/07/13 04:08:09;;;;;;;3.40;3.10;;;19.70;1.00;;;;;;4955073;29;20644;-61
2022/07/13 04:10:36;;;;;;;4.90;3.67;;;19.70;1.00;;;;;;4955539;29;20213;-62
2022/07/13 04:13:03;;;;;;;6.60;3.00;;;19.70;99.90;;;;;;4955367;29;20485;-62
2022/07/13 04:15:31;;;;;;;3.83;3.07;;;19.80;99.90;;;;;;4955431;29;20684;-61
2022/07/13 04:17:58;;;;;;;3.47;3.00;;;19.80;99.90;;;;;;4954794;29;20225;-62
2022/07/13 04:20:24;;;;;;;3.60;3.07;;;19.90;99.90;;;;;;4955271;29;20213;-62
2022/07/13 04:22:51;;;;;;;3.40;2.77;;;19.90;10.30;;;;;;4955061;29;20260;-62
2022/07/13 04:25:18;;;;;;;3.23;2.90;;;19.90;1.00;;;;;;4955542;29;20212;-61
2022/07/13 04:27:44;;;;;;;2.80;2.50;;;20.00;1.00;;;;;;4954530;29;20279;-61
2022/07/13 04:30:11;;;;;;;6.17;2.50;;;20.00;1.00;;;;;;4955284;29;20557;-62
2022/07/13 04:32:39;;;;;;;3.53;2.40;;;20.10;1.00;;;;;;4955210;29;20212;-61
2022/07/13 04:35:07;;;;;;;2.67;2.03;;;20.20;99.90;;;;;;4954743;29;20205;-61
2022/07/13 04:37:35;;;;;;;2.70;2.27;;;20.30;99.90;;;;;;4954806;29;20221;-61
2022/07/13 04:40:03;;;;;;;2.40;1.90;;;20.40;99.90;;;;;;4954966;29;20299;-61
2022/07/13 04:42:30;;;;;;;2.30;2.10;;;20.50;99.90;;;;;;4954998;29;20205;-61
2022/07/13 04:44:56;;;;;;;5.10;2.13;;;20.70;99.90;;;;;;4949875;29;20212;-61
2022/07/13 04:47:23;;;;;;;2.47;1.90;;;20.80;99.90;;;;;;4936172;29;20209;-61
2022/07/13 04:49:51;;;;;;;2.30;1.90;;;20.90;99.90;;;;;;4935056;29;20229;-61
2022/07/13 04:52:18;;;;;;;2.20;1.70;;;21.00;99.90;;;;;;4935588;29;20213;-61
2022/07/13 04:54:44;;;;;;;2.33;2.00;;;21.10;99.90;;;;;;4935338;29;20229;-61
2022/07/13 04:57:11;;;;;;;3.53;2.27;;;21.20;99.90;;;;;;4934786;29;20217;-61
2022/07/13 04:59:38;;;;;;;2.30;1.93;;;21.30;99.90;;;;;;4954306;28;20237;-61
2022/07/13 05:02:05;;;;;;;2.87;2.13;;;21.40;99.90;;;;;;4954243;29;20209;-62
2022/07/13 05:04:31;;;;;;;3.73;2.00;;;21.50;99.90;;;;;;4953973;29;20208;-61
2022/07/13 05:07:00;;;;;;;2.10;1.90;;;21.60;99.90;;;;;;4954258;29;20213;-61
2022/07/13 05:09:27;;;;;;;2.27;1.50;;;21.70;99.90;;;;;;4954762;29;20237;-62
2022/07/13 05:11:54;;;;;;;1.80;1.70;;;21.80;99.90;;;;;;4954431;29;20291;-62
2022/07/13 05:14:20;;;;;;;2.20;1.63;;;21.80;99.90;;;;;;4953968;29;20272;-62
2022/07/13 05:16:47;;;;;;;3.20;1.80;;;21.80;99.90;;;;;;4953640;29;20637;-61
2022/07/13 05:19:13;;;;;;;2.40;1.70;;;21.70;99.90;;;;;;4953699;29;20779;-61
2022/07/13 05:21:40;;;;;;;1.80;1.70;;;21.70;99.90;;;;;;4949925;29;20284;-67
2022/07/13 05:24:08;;;;;;;4.97;1.93;;;21.60;99.90;;;;;;4934542;29;20216;-63
2022/07/13 05:26:36;;;;;;;3.33;1.70;;;21.60;99.90;;;;;;4934409;29;20217;-61
2022/07/13 05:29:04;;;;;;;3.07;2.00;;;21.60;99.90;;;;;;4935021;29;20320;-61
2022/07/13 05:31:31;;;;;;;2.40;2.00;;;21.60;99.90;;;;;;4934415;29;20210;-62
2022/07/13 05:33:58;;;;;;;3.47;1.90;;;21.70;99.90;;;;;;4934915;29;20566;-61
2022/07/13 05:36:24;;;;;;;2.20;1.73;;;21.70;99.90;;;;;;4934007;29;20574;-61
2022/07/13 05:38:51;;;;;;;3.20;1.63;;;21.80;99.90;;;;;;4934426;29;20226;-61
2022/07/13 05:41:19;;;;;;;3.47;1.97;;;21.90;99.90;;;;;;4934128;29;20688;-61
2022/07/13 05:43:47;;;;;;;2.73;1.77;;;22.00;99.90;;;;;;4934564;29;20261;-62
2022/07/13 05:46:13;;;;;;;2.10;1.90;;;22.10;99.90;;;;;;4933723;29;20213;-62
2022/07/13 05:48:40;;;;;;;3.53;1.70;;;22.10;99.90;;;;;;4934470;29;20289;-62
2022/07/13 05:51:07;;;;;;;2.20;1.80;;;22.20;99.90;;;;;;4934821;29;20218;-62
2022/07/13 05:53:33;;;;;;;2.00;1.67;;;22.30;99.90;;;;;;4934121;29;20232;-63
2022/07/13 05:56:00;;;;;;;5.83;1.80;;;22.40;99.90;;;;;;4934072;29;20268;-62
2022/07/13 05:58:28;;;;;;;3.00;1.90;;;22.40;99.90;;;;;;4933897;29;20582;-64
2022/07/13 06:00:55;;;;;;;2.47;1.80;;;22.40;99.90;;;;;;4934628;29;20240;-61
2022/07/13 06:03:22;;;;;;;2.43;1.77;;;22.40;99.90;;;;;;4934200;29;20245;-65
2022/07/13 06:05:48;;;;;;;2.03;1.83;;;22.50;99.90;;;;;;4934470;29;20205;-62
2022/07/13 06:08:15;;;;;;;4.80;1.73;;;22.50;99.90;;;;;;4934162;29;20253;-61
2022/07/13 06:10:42;;;;;;;2.17;1.73;;;22.50;99.90;;;;;;4935256;29;20258;-62
2022/07/13 06:13:08;;;;;;;3.17;1.77;;;22.50;99.90;;;;;;4938029;29;20688;-61
2022/07/13 06:15:37;;;;;;;2.97;1.80;;;22.60;99.90;;;;;;4945225;29;20213;-62
2022/07/13 06:18:05;;;;;;;3.03;2.00;;;22.60;99.90;;;;;;4956951;29;20714;-64
2022/07/13 06:20:31;;;;;;;4.53;1.60;;;22.80;99.90;;;;;;4956715;29;20672;-63
2022/07/13 06:23:10;;;;;;;1.90;1.40;;;22.90;99.90;;;;;;4942702;29;20216;-64
2022/07/13 06:25:37;;;;;;;3.63;1.90;;;23.00;99.90;;;;;;4956074;29;20208;-61
2022/07/13 06:28:05;;;;;;;2.43;1.90;;;22.90;99.90;;;;;;4956029;29;20747;-62
2022/07/13 06:30:31;;;;;;;1.80;1.47;;;23.10;99.90;;;;;;4948715;29;20221;-61
2022/07/13 06:32:59;;;;;;;2.00;1.60;;;23.20;99.90;;;;;;4936943;29;20221;-61
2022/07/13 06:35:26;;;;;;;2.17;1.77;;;23.40;99.90;;;;;;4937222;29;20276;-63
2022/07/13 06:37:53;;;;;;;2.80;1.57;;;23.70;99.90;;;;;;4936675;29;20216;-61
2022/07/13 06:40:19;;;;;;;2.67;1.47;;;24.00;99.90;;;;;;4937001;29;20733;-61
2022/07/13 06:42:46;;;;;;;2.90;1.50;;;24.20;99.90;;;;;;4937349;29;20209;-61
2022/07/13 06:45:14;;;;;;;2.47;1.50;;;24.50;99.90;;;;;;4944908;29;20304;-61
2022/07/13 06:47:40;;;;;;;3.87;1.70;;;24.50;99.90;;;;;;4936870;29;20205;-64
2022/07/13 06:50:10;;;;;;;3.00;1.70;;;24.50;99.90;;;;;;4936915;29;20292;-60
2022/07/13 06:52:37;;;;;;;4.40;1.60;;;24.60;99.90;;;;;;4937168;29;20263;-61
2022/07/13 06:55:05;;;;;;;1.67;1.50;;;24.70;99.90;;;;;;4936583;29;20317;-66
2022/07/13 06:57:32;;;;;;;2.60;1.70;;;24.80;99.90;;;;;;4936456;29;20630;-64
2022/07/13 06:59:58;;;;;;;4.33;1.60;;;25.00;99.90;;;;;;4937000;29;20325;-66
2022/07/13 07:02:25;;;;;;;2.37;1.63;;;25.00;99.90;;;;;;4937494;29;20304;-66
2022/07/13 07:04:53;;;;;;;3.90;1.57;;;25.20;99.90;;;;;;4936648;29;20206;-62
2022/07/13 07:07:21;;;;;;;2.37;1.63;;;25.20;99.90;;;;;;4935987;29;20241;-61
2022/07/13 07:09:48;;;;;;;1.37;1.10;;;25.10;99.90;;;;;;4936835;29;20232;-62
2022/07/13 07:12:14;;;;;;;2.33;1.80;;;25.20;99.90;;;;;;4936496;29;20677;-62
2022/07/13 07:14:41;;;;;;;2.67;1.63;;;25.20;99.90;;;;;;4936343;29;20233;-62
2022/07/13 07:17:08;;;;;;;2.47;1.90;;;25.40;99.90;;;;;;4936246;29;20218;-62
2022/07/13 07:19:35;;;;;;;2.50;1.20;;;25.30;99.90;;;;;;4936156;29;20611;-63
2022/07/13 07:22:01;;;;;;;6.23;1.70;;;25.40;99.90;;;;;;4936219;29;20254;-65
2022/07/13 07:24:31;;;;;;;2.23;1.67;;;25.50;99.90;;;;;;4935991;29;20257;-66
2022/07/13 07:26:57;;;;;;;2.20;1.70;;;25.70;99.90;;;;;;4936041;29;20241;-65
2022/07/13 07:29:24;;;;;;;2.60;1.70;;;25.60;99.90;;;;;;4936422;29;20234;-61
2022/07/13 07:31:51;;;;;;;4.13;1.83;;;25.60;99.90;;;;;;4936213;29;20210;-63
2022/07/13 07:34:18;;;;;;;2.60;1.40;;;25.60;99.90;;;;;;4936027;29;20226;-63
2022/07/13 07:36:44;;;;;;;2.00;1.30;;;25.90;99.90;;;;;;4935067;29;20731;-62
2022/07/13 07:39:12;;;;;;;2.53;1.60;;;26.10;99.90;;;;;;4936206;29;20225;-63
2022/07/13 07:41:40;;;;;;;2.10;1.40;;;26.20;99.90;;;;;;4936072;29;20221;-63
2022/07/13 07:44:08;;;;;;;2.90;2.23;;;26.30;99.90;;;;;;4935751;29;20206;-63
2022/07/13 07:46:34;;;;;;;2.80;1.63;;;26.20;99.90;;;;;;4935933;29;20304;-61
2022/07/13 07:49:03;;;;;;;2.10;1.60;;;26.20;99.90;;;;;;4935166;29;20240;-61
2022/07/13 07:51:29;;;;;;;2.10;1.50;;;26.40;99.90;;;;;;4936002;29;20206;-62
2022/07/13 07:53:56;;;;;;;2.13;1.53;;;26.60;99.90;;;;;;4935083;29;20217;-61
2022/07/13 07:56:23;;;;;;;5.07;1.67;;;27.00;99.90;;;;;;4935819;29;20296;-61
2022/07/13 07:58:51;;;;;;;3.33;1.43;;;27.30;99.90;;;;;;4935306;29;20266;-61
2022/07/13 08:01:18;;;;;;;4.40;1.50;;;27.30;99.90;;;;;;4935782;29;20214;-63
2022/07/13 08:03:44;;;;;;;2.07;1.50;;;27.60;99.90;;;;;;4935312;29;20736;-63
2022/07/13 08:06:12;;;;;;;1.80;1.43;;;27.60;99.90;;;;;;4935238;29;21058;-63
2022/07/13 08:08:38;;;;;;;1.80;1.37;;;27.40;99.90;;;;;;4935624;29;20236;-64
2022/07/13 08:11:07;;;;;;;6.07;1.57;;;27.40;99.90;;;;;;4935314;29;20210;-63
2022/07/13 08:13:34;;;;;;;2.80;1.80;;;27.40;99.90;;;;;;4935456;29;20218;-66
2022/07/13 08:16:03;;;;;;;2.60;1.90;;;27.40;99.90;;;;;;4935268;29;20237;-64
2022/07/13 08:18:30;;;;;;;4.40;1.90;;;27.20;99.90;;;;;;4935332;29;20238;-64
2022/07/13 08:20:56;;;;;;;1.70;1.47;;;27.30;99.90;;;;;;4935594;29;20217;-65
2022/07/13 08:26:10;;;;;;;2.33;1.70;;;27.40;99.90;;;;;;4933601;29;20261;-64
2022/07/13 08:28:36;;;;;;;3.60;2.07;;;27.40;99.90;;;;;;4934626;29;20289;-65
2022/07/13 08:31:05;;;;;;;4.07;1.50;;;27.40;99.90;;;;;;4935637;29;20809;-63
2022/07/13 08:39:02;;;;;;;3.40;1.73;;;27.20;99.90;;;;;;4934834;29;20808;-63
2022/07/13 08:41:30;;;;;;;4.47;1.70;;;27.30;99.90;;;;;;4935417;29;20296;-62
2022/07/13 08:43:56;;;;;;;3.30;1.60;;;27.40;99.90;;;;;;4935081;29;20265;-62
2022/07/13 08:46:25;;;;;;;2.10;1.60;;;27.40;99.90;;;;;;4934457;29;20253;-61
2022/07/13 08:48:55;;;;;;;2.97;2.00;;;27.50;99.90;;;;;;4934923;29;20281;-63
2022/07/13 08:51:22;;;;;;;4.77;1.90;;;27.40;99.90;;;;;;4934942;29;20210;-62
2022/07/13 08:53:51;;;;;;;3.87;1.83;;;27.50;99.90;;;;;;4934718;29;20209;-64
2022/07/13 08:56:18;;;;;;;4.30;1.60;;;27.60;99.90;;;;;;4934543;29;20285;-64
2022/07/13 08:58:45;;;;;;;2.23;1.60;;;27.50;99.90;;;;;;4934122;29;20233;-62
2022/07/13 09:01:12;;;;;;;5.27;1.90;;;27.30;99.90;;;;;;4934936;29;20268;-62
2022/07/13 09:03:40;;;;;;;5.20;1.83;;;27.10;99.90;;;;;;4934254;29;20681;-62
2022/07/13 09:06:07;;;;;;;3.13;1.87;;;27.20;99.90;;;;;;4934445;29;20637;-63
2022/07/13 09:08:41;;;;;;;5.37;1.90;;;27.20;99.90;;;;;;4934816;29;20701;-61
2022/07/13 09:11:08;;;;;;;3.67;2.00;;;27.60;99.90;;;;;;4934435;29;20280;-64
2022/07/13 09:13:38;;;;;;;4.00;2.00;;;27.90;99.90;;;;;;4934815;29;20216;-63
2022/07/13 09:16:18;;;;;;;3.57;1.80;;;27.90;99.90;;;;;;4934479;28;20225;-65
2022/07/13 09:18:48;;;;;;;3.13;2.07;;;28.00;99.90;;;;;;4933955;29;20650;-63
2022/07/13 09:21:16;;;;;;;3.37;2.10;;;27.90;99.90;;;;;;4934781;29;20282;-64
2022/07/13 09:23:43;;;;;;;4.07;2.07;;;27.90;99.90;;;;;;4934396;29;20205;-62
2022/07/13 09:26:10;;;;;;;2.50;2.00;;;28.00;99.90;;;;;;4934830;29;20285;-64
2022/07/13 09:28:44;;;;;;;2.70;2.00;;;28.10;99.90;;;;;;4934497;29;20237;-61
2022/07/13 09:31:11;;;;;;;3.40;1.83;;;28.30;99.90;;;;;;4934305;29;20300;-61
2022/07/13 09:33:40;;;;;;;3.93;2.20;;;28.40;99.90;;;;;;4934256;29;20264;-63
2022/07/13 09:36:12;;;;;;;3.50;2.03;;;28.10;99.90;;;;;;4934424;29;20371;-63
2022/07/13 09:38:41;;;;;;;4.60;2.07;;;28.10;99.90;;;;;;4934152;29;20280;-64
2022/07/13 09:41:24;;;;;;;6.47;1.90;;;28.30;99.90;;;;;;4934458;29;20296;-64
2022/07/13 09:46:53;;;;;;;4.70;2.20;;;28.40;99.90;;;;;;4937787;29;20200;-62
2022/07/13 09:49:29;;;;;;;2.80;1.50;;;28.40;99.90;;;;;;4945390;29;20228;-62
2022/07/13 09:51:58;;;;;;;5.07;2.30;;;28.50;99.90;;;;;;4952770;29;20294;-61
2022/07/13 09:54:27;;;;;;;3.40;2.00;;;28.50;99.90;;;;;;4935026;29;20213;-61
2022/07/13 09:56:58;;;;;;;3.70;1.83;;;28.40;99.90;;;;;;4933252;29;20656;-61
2022/07/13 09:59:25;;;;;;;3.27;1.90;;;28.50;99.90;;;;;;4933545;29;20312;-63
2022/07/13 10:01:53;;;;;;;4.37;2.57;;;28.60;99.90;;;;;;4933576;29;20680;-63
2022/07/13 10:04:20;;;;;;;5.07;2.20;;;28.60;99.90;;;;;;4933271;29;20213;-61
2022/07/13 10:06:47;;;;;;;3.23;1.80;;;28.70;99.90;;;;;;4933681;29;20268;-61
2022/07/13 10:09:17;;;;;;;4.53;2.00;;;28.70;99.90;;;;;;4933678;29;20233;-62
2022/07/13 10:11:44;;;;;;;2.77;1.83;;;28.70;99.90;;;;;;4934174;29;20209;-65
2022/07/13 10:14:10;;;;;;;4.20;1.80;;;28.60;99.90;;;;;;4933335;29;20213;-62
2022/07/13 10:16:37;;;;;;;2.53;1.97;;;28.50;99.90;;;;;;4933467;29;20300;-61
2022/07/13 10:19:07;;;;;;;2.97;2.00;;;28.60;99.90;;;;;;4933470;29;20233;-64
2022/07/13 10:21:41;;;;;;;5.97;2.10;;;28.50;99.90;;;;;;4933330;29;20245;-64
2022/07/13 10:24:17;;;;;;;4.83;2.33;;;28.80;99.90;;;;;;4933299;29;20224;-61
2022/07/13 10:26:47;;;;;;;6.87;2.23;;;28.90;99.90;;;;;;4932605;29;20272;-63
2022/07/13 10:29:15;;;;;;;5.03;2.30;;;28.70;99.90;;;;;;4933809;29;20609;-64
2022/07/13 10:31:43;;;;;;;5.20;2.07;;;28.70;99.90;;;;;;4932879;29;20210;-64
2022/07/13 10:34:11;;;;;;;7.37;2.80;;;28.70;99.90;;;;;;4933415;29;20697;-67
2022/07/13 10:36:55;;;;;;;6.80;2.50;;;28.70;99.90;;;;;;4933527;29;20632;-66
2022/07/13 10:39:24;;;;;;;6.85;2.30;;;29.00;99.90;;;;;;4933133;29;20237;-67
2022/07/13 10:41:59;;;;;;;3.63;1.90;;;29.10;99.90;;;;;;4933325;29;20206;-63
2022/07/13 10:44:37;;;;;;;6.83;2.30;;;29.10;99.90;;;;;;4943440;29;20279;-66
2022/07/13 10:47:06;;;;;;;3.90;2.10;;;29.10;99.90;;;;;;4952860;29;20213;-65
2022/07/13 10:49:41;;;;;;;5.05;2.28;;;28.90;99.90;;;;;;4952336;28;20320;-65
2022/07/13 10:52:47;;;;;;;4.83;2.10;;;29.20;99.90;;;;;;4952706;29;20653;-64
2022/07/13 10:55:29;;;;;;;3.65;2.08;;;29.20;99.90;;;;;;4952295;29;20312;-64
2022/07/13 10:57:56;;;;;;;4.68;1.90;;;29.30;99.90;;;;;;4955311;29;20615;-64
2022/07/13 11:00:43;;;;;;;5.07;1.93;;;29.20;99.90;;;;;;4955999;29;20219;-62
2022/07/13 11:03:26;;;;;;;4.38;1.90;;;29.30;99.90;;;;;;4955944;29;20244;-61
2022/07/13 11:06:06;;;;;;;2.72;1.80;;;29.30;99.90;;;;;;4955789;29;20683;-60
2022/07/13 11:08:33;;;;;;;2.80;1.88;;;29.30;99.90;;;;;;4955938;29;20670;-62
2022/07/13 11:11:15;;;;;;;3.05;1.88;;;29.30;99.90;;;;;;4956058;29;20209;-62
2022/07/13 11:13:44;;;;;;;4.07;1.88;;;29.10;99.90;;;;;;4955287;29;20680;-62
2022/07/13 11:16:11;;;;;;;3.10;2.00;;;29.10;99.90;;;;;;4956609;29;20265;-66
2022/07/13 11:18:39;;;;;;;3.60;1.60;;;29.20;99.90;;;;;;4955201;29;20264;-67
2022/07/13 11:21:09;;;;;;;7.50;1.90;;;28.90;99.90;;;;;;4955658;29;20259;-68
2022/07/13 11:26:55;;;;;;;3.40;1.77;;;28.80;99.90;;;;;;4955382;29;20240;-62
2022/07/13 11:29:28;;;;;;;6.27;2.00;;;28.70;99.90;;;;;;4955639;29;20288;-61
2022/07/13 11:31:55;;;;;;;3.50;1.80;;;28.50;99.90;;;;;;4955596;29;20649;-61
2022/07/13 11:34:22;;;;;;;4.83;2.40;;;28.50;99.90;;;;;;4955242;29;20304;-61
2022/07/13 11:36:50;;;;;;;4.33;1.90;;;28.40;99.90;;;;;;4954562;29;20284;-61
2022/07/13 11:39:24;;;;;;;5.53;1.60;;;28.10;99.90;;;;;;4955328;29;20236;-65
2022/07/13 11:41:53;;;;;;;3.83;1.80;;;28.10;99.90;;;;;;4954748;29;20284;-62
2022/07/13 11:44:22;;;;;;;4.53;1.90;;;28.30;99.90;;;;;;4954968;29;20769;-62
2022/07/13 11:46:48;;;;;;;11.73;7.57;;;28.40;99.90;;;;;;4955065;29;20235;-63
2022/07/13 11:49:15;;;;;;;5.90;3.13;;;28.40;99.90;;;;;;4955094;29;20260;-62
2022/07/13 11:51:43;;;;;;;3.30;2.07;;;28.40;99.90;;;;;;4955155;29;20621;-64
2022/07/13 11:54:13;;;;;;;4.57;2.00;;;28.60;99.90;;;;;;4954799;29;20213;-63
2022/07/13 11:56:47;;;;;;;4.93;1.57;;;28.70;99.90;;;;;;4954775;29;20280;-63
2022/07/13 11:59:16;;;;;;;3.33;2.10;;;29.00;99.90;;;;;;4954883;28;20242;-62
2022/07/13 12:01:50;;;;;;;4.27;1.90;;;29.30;99.90;;;;;;4954959;29;20681;-62
2022/07/13 12:04:22;;;;;;;3.40;1.40;;;29.50;99.90;;;;;;4954890;29;20213;-63
2022/07/13 12:06:48;;;;;;;2.40;1.58;;;29.40;99.90;;;;;;4954603;29;20255;-63
2022/07/13 12:09:18;;;;;;;3.57;1.60;;;29.20;99.90;;;;;;4953785;28;20225;-63
2022/07/13 12:11:45;;;;;;;6.63;1.70;;;29.40;99.90;;;;;;4954785;29;20213;-63
2022/07/13 12:14:12;;;;;;;5.73;1.80;;;29.50;99.90;;;;;;4954970;29;20205;-63
2022/07/13 12:16:40;;;;;;;3.47;1.60;;;29.30;99.90;;;;;;4954323;29;20276;-66
2022/07/13 12:19:08;;;;;;;3.72;1.88;;;29.60;99.90;;;;;;4955217;29;20295;-65
2022/07/13 12:21:35;;;;;;;2.78;2.00;;;29.70;99.90;;;;;;4954822;29;20696;-65
2022/07/13 12:24:03;;;;;;;7.25;2.00;;;29.70;99.90;;;;;;4954057;29;20623;-65
2022/07/13 12:26:30;;;;;;;4.13;2.08;;;29.70;99.90;;;;;;4954459;28;20212;-66
2022/07/13 12:28:57;;;;;;;4.75;1.98;;;29.80;99.90;;;;;;4954239;29;20225;-66
2022/07/13 12:31:24;;;;;;;4.85;2.08;;;29.90;99.90;;;;;;4954508;29;20575;-69
2022/07/13 12:33:52;;;;;;;4.78;1.95;;;29.80;99.90;;;;;;4953947;28;20209;-62
2022/07/13 12:36:22;;;;;;;4.35;1.80;;;29.80;99.90;;;;;;4954107;28;20225;-62
2022/07/13 12:38:59;;;;;;;3.75;1.77;;;29.50;99.90;;;;;;4954152;29;20716;-63
2022/07/13 12:41:28;;;;;;;3.55;2.00;;;29.50;99.90;;;;;;4954285;29;20220;-63
2022/07/13 12:43:56;;;;;;;4.10;1.83;;;29.70;99.90;;;;;;4954077;29;20210;-63
2022/07/13 12:46:23;;;;;;;2.25;1.67;;;29.80;99.90;;;;;;4944043;29;20209;-64
2022/07/13 12:49:01;;;;;;;5.10;1.93;;;29.60;99.90;;;;;;4934504;29;20238;-64
2022/07/13 12:51:46;;;;;;;4.45;2.03;;;29.70;99.90;;;;;;4935062;29;20205;-65
2022/07/13 12:54:13;;;;;;;5.78;2.10;;;29.60;99.90;;;;;;4934848;29;20641;-65
2022/07/13 12:56:50;;;;;;;3.03;1.83;;;29.70;99.90;;;;;;4934480;29;20849;-64
2022/07/13 12:59:19;;;;;;;3.05;1.80;;;29.80;99.90;;;;;;4934578;29;20229;-63
2022/07/13 13:01:46;;;;;;;3.08;1.83;;;29.80;99.90;;;;;;4934727;29;20264;-63
2022/07/13 13:04:16;;;;;;;5.70;2.30;;;29.90;99.90;;;;;;4933596;29;20696;-63
2022/07/13 13:06:44;;;;;;;8.05;2.28;;;30.00;99.90;;;;;;4934293;29;20209;-65